Time;durP1;ratioP1;P1;durP2;ratioP2;P2;SDS_P1;SDS_P2;PMS_P1;PMS_P2;Temp;Humidity;BMP_temperature;BMP_pressure;BME280_temperature;BME280_humidity;BME280_pressure;Samples;Min_cycle;Max_cycle;Signal;HPM_P1;HPM_P2
2022/11/25 00:02:18;;;;;;;16.77;2.03;;;8.90;99.90;;;;;;5074541;28;20020;-77
2022/11/25 00:04:44;;;;;;;9.55;2.72;;;8.90;99.90;;;;;;5069822;28;20040;-76
2022/11/25 00:07:10;;;;;;;10.02;2.53;;;8.90;99.90;;;;;;5073562;28;20069;-77
2022/11/25 00:09:36;;;;;;;13.43;2.37;;;8.90;99.90;;;;;;5062127;28;20066;-82
2022/11/25 00:12:01;;;;;;;19.03;2.70;;;8.90;99.90;;;;;;5052605;28;20123;-79
2022/11/25 00:14:27;;;;;;;21.13;2.60;;;8.90;99.90;;;;;;5065441;28;20039;-82
2022/11/25 00:16:52;;;;;;;11.97;2.10;;;8.90;99.90;;;;;;5053207;28;20331;-83
2022/11/25 00:19:18;;;;;;;17.27;2.83;;;8.90;99.90;;;;;;5056113;28;20027;-84
2022/11/25 00:21:44;;;;;;;10.23;1.90;;;8.90;99.90;;;;;;5075406;28;20032;-77
2022/11/25 00:24:13;;;;;;;12.57;2.60;;;8.90;99.90;;;;;;5073549;28;20028;-82
2022/11/25 00:26:39;;;;;;;13.88;2.53;;;8.90;99.90;;;;;;5064374;28;20032;-84
2022/11/25 00:29:07;;;;;;;11.63;2.13;;;8.90;99.90;;;;;;5074038;28;20033;-77
2022/11/25 00:31:34;;;;;;;17.35;2.63;;;8.90;99.90;;;;;;5074834;28;20028;-79
2022/11/25 00:34:00;;;;;;;6.70;2.17;;;8.90;99.90;;;;;;5070250;28;20024;-81
2022/11/25 00:36:32;;;;;;;10.17;2.17;;;8.90;99.90;;;;;;5070566;28;20119;-80
2022/11/25 00:39:10;;;;;;;13.80;1.90;;;8.90;99.90;;;;;;5074416;28;20048;-82
2022/11/25 00:44:36;;;;;;;14.30;2.47;;;8.90;99.90;;;;;;5065512;28;20082;-83
2022/11/25 00:47:12;;;;;;;14.27;2.35;;;8.90;99.90;;;;;;5073821;28;20074;-81
2022/11/25 00:49:40;;;;;;;16.38;2.28;;;8.90;99.90;;;;;;5059810;28;20017;-77
2022/11/25 00:52:06;;;;;;;19.65;2.45;;;8.90;99.90;;;;;;5073265;28;20088;-79
2022/11/25 00:54:32;;;;;;;17.75;2.70;;;8.90;99.90;;;;;;5049156;28;20041;-80
2022/11/25 00:56:58;;;;;;;11.93;2.13;;;8.90;99.90;;;;;;5073170;28;20029;-80
2022/11/25 00:59:24;;;;;;;17.92;2.47;;;8.90;99.90;;;;;;5068987;28;20461;-80
2022/11/25 01:01:50;;;;;;;13.73;2.43;;;9.00;99.90;;;;;;5071049;28;20238;-80
2022/11/25 01:04:16;;;;;;;8.30;2.10;;;8.90;99.90;;;;;;5074456;28;20036;-78
2022/11/25 01:06:42;;;;;;;12.60;2.33;;;9.00;99.90;;;;;;5071636;28;20086;-78
2022/11/25 01:09:09;;;;;;;9.83;2.40;;;9.00;99.90;;;;;;5071694;28;20029;-79
2022/11/25 01:11:35;;;;;;;14.95;2.97;;;8.90;99.90;;;;;;5071953;28;20025;-79
2022/11/25 01:14:01;;;;;;;9.67;1.83;;;8.90;99.90;;;;;;5049426;28;20032;-79
2022/11/25 01:16:27;;;;;;;13.00;2.63;;;9.00;99.90;;;;;;5055913;28;20025;-80
2022/11/25 01:18:53;;;;;;;14.25;2.25;;;9.00;99.90;;;;;;5058524;28;20032;-82
2022/11/25 01:21:22;;;;;;;8.27;1.90;;;9.00;99.90;;;;;;5063999;28;20029;-80
2022/11/25 01:23:48;;;;;;;6.63;2.08;;;9.00;99.90;;;;;;5057176;28;20028;-79
2022/11/25 01:26:20;;;;;;;19.77;3.03;;;8.90;99.90;;;;;;5071474;28;20107;-79
2022/11/25 01:28:46;;;;;;;13.45;2.95;;;8.90;99.90;;;;;;5065129;28;20029;-79
2022/11/25 01:31:15;;;;;;;16.13;2.50;;;8.90;99.90;;;;;;5067995;28;20458;-79
2022/11/25 01:33:42;;;;;;;19.15;2.75;;;8.90;99.90;;;;;;5062769;28;20043;-82
2022/11/25 01:36:10;;;;;;;15.43;2.10;;;9.00;99.90;;;;;;5062918;28;20020;-80
2022/11/25 01:38:37;;;;;;;11.48;2.88;;;8.90;99.90;;;;;;5069652;28;20331;-80
2022/11/25 01:41:03;;;;;;;;;;;8.90;99.90;;;;;;5074596;28;20059;-78
2022/11/25 01:43:29;;;;;;;13.63;2.67;;;8.90;99.90;;;;;;5072907;28;19990;-79
2022/11/25 01:46:05;;;;;;;18.75;2.45;;;8.90;99.90;;;;;;5064491;28;20366;-82
2022/11/25 01:48:51;;;;;;;16.13;2.20;;;8.90;99.90;;;;;;5063927;28;20025;-84
2022/11/25 01:51:25;;;;;;;12.00;2.65;;;8.90;99.90;;;;;;5071282;28;20120;-79
2022/11/25 01:53:52;;;;;;;16.30;2.55;;;8.80;99.90;;;;;;5072494;28;20056;-80
2022/11/25 01:56:18;;;;;;;;;;;8.90;99.90;;;;;;5062709;28;20039;-77
2022/11/25 01:58:46;;;;;;;10.27;2.75;;;8.90;99.90;;;;;;5068344;28;20204;-79
2022/11/25 02:01:13;;;;;;;10.85;2.28;;;8.90;99.90;;;;;;5072240;28;20032;-80
2022/11/25 02:03:43;;;;;;;6.65;2.30;;;8.90;99.90;;;;;;5073827;28;20066;-85
2022/11/25 02:06:39;;;;;;;14.77;2.88;;;8.90;99.90;;;;;;5074131;28;20029;-81
2022/11/25 02:09:07;;;;;;;15.45;2.67;;;8.90;99.90;;;;;;5075532;28;20025;-81
2022/11/25 02:11:35;;;;;;;8.63;2.80;;;8.90;99.90;;;;;;5067875;28;20024;-79
2022/11/25 02:14:02;;;;;;;16.23;2.47;;;8.90;99.90;;;;;;5067897;28;20028;-83
2022/11/25 02:16:27;;;;;;;;;;;8.90;99.90;;;;;;5077835;28;20016;-80
2022/11/25 02:18:53;;;;;;;12.10;2.80;;;8.90;99.90;;;;;;5071775;28;19916;-81
2022/11/25 02:21:46;;;;;;;15.95;2.50;;;8.90;99.90;;;;;;5076229;28;20028;-82
2022/11/25 02:24:27;;;;;;;18.23;3.00;;;8.90;99.90;;;;;;5076745;28;20039;-79
2022/11/25 02:26:53;;;;;;;7.32;2.28;;;8.80;99.90;;;;;;5064172;28;20025;-80
2022/11/25 02:29:19;;;;;;;21.90;3.23;;;8.80;99.90;;;;;;5073858;28;20066;-81
2022/11/25 02:31:48;;;;;;;18.38;3.05;;;8.90;99.90;;;;;;5077327;28;20021;-80
2022/11/25 02:34:14;;;;;;;13.63;3.10;;;8.80;99.90;;;;;;5054912;28;20033;-81
2022/11/25 02:36:40;;;;;;;10.90;2.93;;;8.80;99.90;;;;;;5070108;28;20028;-81
2022/11/25 02:39:06;;;;;;;13.13;3.00;;;8.80;99.90;;;;;;5045937;28;20033;-80
2022/11/25 02:41:36;;;;;;;14.77;3.10;;;8.80;99.90;;;;;;5064398;28;20062;-79
2022/11/25 02:44:02;;;;;;;11.07;2.90;;;8.70;99.90;;;;;;5073232;28;20036;-82
2022/11/25 02:46:29;;;;;;;10.45;2.55;;;8.80;99.90;;;;;;5062916;28;20021;-81
2022/11/25 02:48:56;;;;;;;16.65;3.25;;;8.80;99.90;;;;;;5074092;28;20037;-83
2022/11/25 02:51:25;;;;;;;19.38;2.95;;;8.80;99.90;;;;;;5064513;28;20028;-80
2022/11/25 02:53:51;;;;;;;17.02;2.67;;;8.80;99.90;;;;;;5076937;28;20053;-84
2022/11/25 02:56:19;;;;;;;13.45;2.90;;;8.80;99.90;;;;;;5072627;28;20017;-81
2022/11/25 02:58:45;;;;;;;7.85;2.63;;;8.80;99.90;;;;;;5071884;28;20029;-82
2022/11/25 03:01:10;;;;;;;14.40;3.67;;;8.80;99.90;;;;;;5075534;28;20035;-82
2022/11/25 03:03:36;;;;;;;15.50;2.77;;;8.70;99.90;;;;;;5067768;28;20385;-81
2022/11/25 03:06:03;;;;;;;12.77;3.57;;;8.70;99.90;;;;;;5076497;28;20031;-79
2022/11/25 03:08:29;;;;;;;12.50;3.53;;;8.70;99.90;;;;;;5074270;28;20529;-83
2022/11/25 03:10:54;;;;;;;9.10;2.33;;;8.70;99.90;;;;;;5057398;28;20033;-82
2022/11/25 03:13:20;;;;;;;14.87;2.93;;;8.70;99.90;;;;;;5074868;28;20447;-84
2022/11/25 03:15:47;;;;;;;13.90;2.60;;;8.70;99.90;;;;;;5067745;28;20028;-80
2022/11/25 03:18:12;;;;;;;12.73;2.75;;;8.70;99.90;;;;;;5074129;28;20472;-82
2022/11/25 03:20:39;;;;;;;16.92;2.88;;;8.70;99.90;;;;;;5078001;28;20037;-80
2022/11/25 03:23:05;;;;;;;18.05;3.50;;;8.80;99.90;;;;;;5069971;28;20388;-80
2022/11/25 03:25:31;;;;;;;6.72;2.05;;;8.80;99.90;;;;;;5070148;28;20032;-80
2022/11/25 03:27:57;;;;;;;17.70;2.95;;;8.70;99.90;;;;;;5072276;28;20028;-79
2022/11/25 03:30:25;;;;;;;12.07;2.27;;;8.70;99.90;;;;;;5068282;28;20024;-83
2022/11/25 03:32:50;;;;;;;12.95;2.63;;;8.70;99.90;;;;;;5071480;28;20670;-81
2022/11/25 03:35:16;;;;;;;10.13;2.73;;;8.70;99.90;;;;;;5074919;28;20378;-83
2022/11/25 03:37:43;;;;;;;13.10;2.45;;;8.70;99.90;;;;;;5072569;28;20052;-79
2022/11/25 03:40:10;;;;;;;14.07;2.75;;;8.80;99.90;;;;;;5074884;28;20025;-83
2022/11/25 03:42:37;;;;;;;9.13;2.28;;;8.70;99.90;;;;;;5070732;28;20025;-86
2022/11/25 03:45:04;;;;;;;11.68;3.35;;;8.80;99.90;;;;;;5073792;28;20020;-79
2022/11/25 03:47:29;;;;;;;11.43;2.80;;;8.80;99.90;;;;;;5061504;28;20029;-83
2022/11/25 03:49:55;;;;;;;10.97;2.37;;;8.70;99.90;;;;;;5074868;28;20028;-82
2022/11/25 03:52:21;;;;;;;15.32;2.90;;;8.70;99.90;;;;;;5069758;28;20049;-79
2022/11/25 03:54:47;;;;;;;12.67;2.70;;;8.70;99.90;;;;;;5070943;28;20044;-82
2022/11/25 03:57:12;;;;;;;17.43;2.93;;;8.70;99.90;;;;;;5071544;28;20031;-81
2022/11/25 03:59:38;;;;;;;9.97;2.73;;;8.70;99.90;;;;;;5066514;28;20025;-83
2022/11/25 04:02:04;;;;;;;13.13;2.73;;;8.70;99.90;;;;;;5073443;28;20489;-82
2022/11/25 04:04:30;;;;;;;8.77;2.27;;;8.70;99.90;;;;;;5071870;28;20056;-79
2022/11/25 04:06:56;;;;;;;12.57;2.17;;;8.70;99.90;;;;;;5072237;28;20077;-84
2022/11/25 04:09:21;;;;;;;8.80;2.47;;;8.70;99.90;;;;;;5074388;28;20036;-81
2022/11/25 04:14:31;;;;;;;7.07;2.25;;;8.70;99.90;;;;;;5068247;28;20035;-83
2022/11/25 04:16:57;;;;;;;15.60;2.63;;;8.60;99.90;;;;;;5074812;28;20037;-85
2022/11/25 04:19:23;;;;;;;6.47;2.20;;;8.60;99.90;;;;;;5071636;28;20029;-84
2022/11/25 04:21:49;;;;;;;13.30;2.33;;;8.60;99.90;;;;;;5070944;28;20446;-86
2022/11/25 04:24:15;;;;;;;8.47;2.60;;;8.60;99.90;;;;;;5065983;28;20469;-83
2022/11/25 04:26:40;;;;;;;7.40;2.60;;;8.50;99.90;;;;;;5071342;28;20021;-83
2022/11/25 04:29:06;;;;;;;9.27;2.05;;;8.50;99.90;;;;;;5075125;28;20465;-83
2022/11/25 04:31:32;;;;;;;10.10;2.47;;;8.50;99.90;;;;;;5072078;28;20024;-83
2022/11/25 04:33:58;;;;;;;7.63;2.55;;;8.40;99.90;;;;;;5087392;28;20124;-84
2022/11/25 04:36:24;;;;;;;7.50;1.60;;;8.30;99.90;;;;;;5073937;28;20111;-85
2022/11/25 04:38:50;;;;;;;11.70;2.65;;;8.20;99.90;;;;;;5057083;28;20071;-78
2022/11/25 04:41:16;;;;;;;3.60;1.50;;;8.20;99.90;;;;;;5074119;28;20088;-84
2022/11/25 04:43:42;;;;;;;6.17;1.90;;;8.20;99.90;;;;;;5070229;28;20116;-81
2022/11/25 04:46:13;;;;;;;9.38;2.05;;;8.20;99.90;;;;;;5062717;28;20375;-84
2022/11/25 04:48:39;;;;;;;6.80;2.03;;;8.10;99.90;;;;;;5070703;28;20103;-79
2022/11/25 04:51:04;;;;;;;6.73;1.63;;;8.10;99.90;;;;;;5056748;28;20381;-80
2022/11/25 04:53:30;;;;;;;12.77;1.80;;;8.00;99.90;;;;;;5056519;28;20474;-86
2022/11/25 04:55:56;;;;;;;5.87;1.63;;;8.00;99.90;;;;;;5066362;28;20116;-83
2022/11/25 05:01:05;;;;;;;6.57;1.73;;;7.80;99.90;;;;;;5062242;28;20074;-84
2022/11/25 05:03:31;;;;;;;5.53;1.37;;;7.80;99.90;;;;;;5071959;28;20040;-86
2022/11/25 05:05:56;;;;;;;3.63;1.35;;;7.80;99.90;;;;;;5065453;28;20462;-79
2022/11/25 05:08:22;;;;;;;5.53;1.90;;;7.70;99.90;;;;;;5075030;28;20024;-80
2022/11/25 05:10:48;;;;;;;10.10;1.90;;;7.60;99.90;;;;;;5074580;28;20024;-83
2022/11/25 05:13:13;;;;;;;6.23;1.80;;;7.60;99.90;;;;;;5056224;28;20035;-84
2022/11/25 05:15:39;;;;;;;8.50;2.23;;;7.60;99.90;;;;;;5059798;28;20064;-79
2022/11/25 05:18:05;;;;;;;3.90;1.87;;;7.50;99.90;;;;;;5059085;28;20115;-82
2022/11/25 05:20:31;;;;;;;2.70;1.30;;;7.50;99.90;;;;;;5063966;28;20033;-85
2022/11/25 05:22:56;;;;;;;5.90;2.17;;;7.50;99.90;;;;;;5069994;28;20082;-84
2022/11/25 05:25:23;;;;;;;7.80;1.80;;;7.50;99.90;;;;;;5073307;28;20033;-80
2022/11/25 05:27:49;;;;;;;4.68;1.80;;;7.50;99.90;;;;;;5061811;28;20028;-83
2022/11/25 05:30:15;;;;;;;5.77;1.73;;;7.50;99.90;;;;;;5067380;28;20044;-84
2022/11/25 05:32:40;;;;;;;12.57;2.77;;;7.50;99.90;;;;;;5048076;28;20025;-82
2022/11/25 05:35:06;;;;;;;6.00;2.55;;;7.50;99.90;;;;;;5059480;28;20039;-81
2022/11/25 05:37:32;;;;;;;4.30;1.97;;;7.50;99.90;;;;;;5055838;28;20033;-81
2022/11/25 05:39:58;;;;;;;5.43;2.20;;;7.50;99.90;;;;;;5065014;28;20032;-83
2022/11/25 05:42:23;;;;;;;5.90;2.43;;;7.40;99.90;;;;;;5069145;28;20028;-85
2022/11/25 05:44:49;;;;;;;8.23;1.83;;;7.50;99.90;;;;;;5073299;28;20059;-80
2022/11/25 05:47:14;;;;;;;6.72;2.17;;;7.50;99.90;;;;;;5069950;28;20029;-81
2022/11/25 05:49:40;;;;;;;4.37;2.27;;;7.50;99.90;;;;;;5078513;28;20104;-84
2022/11/25 05:52:06;;;;;;;11.97;2.37;;;7.40;99.90;;;;;;5070188;28;20016;-83
2022/11/25 05:54:31;;;;;;;9.57;2.92;;;7.40;99.90;;;;;;5078379;28;20044;-82
2022/11/25 05:56:57;;;;;;;11.45;2.22;;;7.50;99.90;;;;;;5073677;28;20032;-85
2022/11/25 05:59:23;;;;;;;4.10;1.87;;;7.50;99.90;;;;;;5074116;28;20025;-84
2022/11/25 06:01:52;;;;;;;6.75;2.42;;;7.50;99.90;;;;;;5078214;28;20064;-83
2022/11/25 06:04:18;;;;;;;3.25;1.83;;;7.40;99.90;;;;;;5071670;28;20351;-83
2022/11/25 06:06:43;;;;;;;9.97;2.60;;;7.40;99.90;;;;;;5068213;28;20027;-79
2022/11/25 06:09:09;;;;;;;8.50;2.37;;;7.40;99.90;;;;;;5075167;28;20025;-85
2022/11/25 06:11:35;;;;;;;9.80;2.60;;;7.50;99.90;;;;;;5058310;28;20021;-87
2022/11/25 06:14:00;;;;;;;6.90;2.33;;;7.50;99.90;;;;;;5062930;28;20090;-83
2022/11/25 06:16:27;;;;;;;7.45;2.63;;;7.50;99.90;;;;;;5072574;28;20028;-79
2022/11/25 06:18:52;;;;;;;6.32;2.33;;;7.50;99.90;;;;;;5067730;28;20494;-82
2022/11/25 06:21:18;;;;;;;5.47;2.13;;;7.40;99.90;;;;;;5069185;28;20111;-86
2022/11/25 06:23:45;;;;;;;5.47;2.53;;;7.40;99.90;;;;;;5074513;28;20044;-78
2022/11/25 06:26:19;;;;;;;6.57;2.30;;;7.40;99.90;;;;;;5073682;28;20021;-85
2022/11/25 06:28:46;;;;;;;9.45;2.75;;;7.40;99.90;;;;;;5069817;28;20032;-83
2022/11/25 06:31:21;;;;;;;9.45;2.13;;;7.40;99.90;;;;;;5065978;28;20021;-83
2022/11/25 06:33:49;;;;;;;10.93;3.15;;;7.30;99.90;;;;;;5071002;28;20037;-87
2022/11/25 06:36:16;;;;;;;6.35;2.90;;;7.30;99.90;;;;;;5065540;28;20028;-89
2022/11/25 06:38:53;;;;;;;4.65;2.25;;;7.30;99.90;;;;;;5076767;28;20028;-82
2022/11/25 06:41:19;;;;;;;;;;;7.30;99.90;;;;;;5076979;28;20060;-87
2022/11/25 06:43:45;;;;;;;5.90;2.78;;;7.30;99.90;;;;;;5061236;28;19913;-85
2022/11/25 06:46:16;;;;;;;5.43;2.53;;;7.30;99.90;;;;;;5072588;28;20043;-84
2022/11/25 06:48:42;;;;;;;11.73;2.92;;;7.20;99.90;;;;;;5069471;28;20324;-81
2022/11/25 06:51:11;;;;;;;15.67;3.60;;;7.20;99.90;;;;;;5061208;28;20031;-79
2022/11/25 06:53:37;;;;;;;6.78;2.47;;;7.10;99.90;;;;;;5063081;28;20077;-85
2022/11/25 06:56:11;;;;;;;9.13;3.43;;;7.10;99.90;;;;;;5062515;28;20371;-78
2022/11/25 06:58:37;;;;;;;13.00;3.22;;;7.10;99.90;;;;;;5061387;28;20039;-80
2022/11/25 07:01:12;;;;;;;5.28;2.75;;;7.10;99.90;;;;;;5070884;28;20028;-81
2022/11/25 07:03:39;;;;;;;5.40;2.88;;;7.10;99.90;;;;;;5074647;28;20151;-85
2022/11/25 07:06:05;;;;;;;12.35;2.67;;;7.00;99.90;;;;;;5077636;28;20020;-85
2022/11/25 07:08:32;;;;;;;7.97;3.22;;;7.00;99.90;;;;;;5071995;28;20044;-84
2022/11/25 07:11:17;;;;;;;10.17;3.43;;;6.90;99.90;;;;;;5073663;28;20411;-79
2022/11/25 07:13:42;;;;;;;6.38;3.20;;;6.90;99.90;;;;;;5055092;28;20372;-81
2022/11/25 07:16:10;;;;;;;12.40;3.43;;;6.90;99.90;;;;;;5070859;28;20074;-83
2022/11/25 07:18:37;;;;;;;8.75;3.78;;;6.90;99.90;;;;;;5070450;28;20467;-79
2022/11/25 07:21:07;;;;;;;14.25;3.20;;;6.90;99.90;;;;;;5076358;28;20070;-78
2022/11/25 07:23:34;;;;;;;8.30;3.83;;;7.00;99.90;;;;;;5074490;28;20029;-81
2022/11/25 07:26:00;;;;;;;;;;;7.00;99.90;;;;;;5075551;28;20035;-83
2022/11/25 07:28:27;;;;;;;8.85;3.50;;;7.00;99.90;;;;;;5072946;28;19923;-83
2022/11/25 07:30:52;;;;;;;10.52;3.67;;;7.00;99.90;;;;;;5072604;28;20090;-82
2022/11/25 07:33:18;;;;;;;9.47;3.53;;;6.90;99.90;;;;;;5068664;28;20029;-85
2022/11/25 07:35:44;;;;;;;11.73;3.43;;;6.90;99.90;;;;;;5072021;28;20055;-84
2022/11/25 07:38:09;;;;;;;7.83;3.63;;;6.90;99.90;;;;;;5073392;28;20040;-79
2022/11/25 07:40:35;;;;;;;8.83;3.33;;;6.90;99.90;;;;;;5074353;28;20056;-86
2022/11/25 07:43:00;;;;;;;9.57;3.60;;;6.90;99.90;;;;;;5055902;28;20032;-84
2022/11/25 07:45:26;;;;;;;15.13;3.80;;;6.90;99.90;;;;;;5071800;28;20025;-88
2022/11/25 07:47:52;;;;;;;8.47;3.30;;;6.80;99.90;;;;;;5057831;28;20424;-86
2022/11/25 07:50:18;;;;;;;12.57;3.63;;;6.90;99.90;;;;;;5072664;28;20325;-85
2022/11/25 07:52:43;;;;;;;9.00;2.93;;;6.90;99.90;;;;;;5075355;28;20450;-80
2022/11/25 07:55:09;;;;;;;7.37;3.33;;;6.90;99.90;;;;;;5074149;28;20064;-86
2022/11/25 07:57:35;;;;;;;9.30;3.60;;;7.00;99.90;;;;;;5075080;28;20085;-89
2022/11/25 08:00:00;;;;;;;7.17;3.43;;;7.00;99.90;;;;;;5076139;28;20301;-84
2022/11/25 08:02:26;;;;;;;11.40;3.20;;;7.10;99.90;;;;;;5070920;28;20048;-82
2022/11/25 08:04:52;;;;;;;12.50;3.53;;;7.10;99.90;;;;;;5073655;28;20043;-80
2022/11/25 08:07:17;;;;;;;12.57;2.93;;;7.10;99.90;;;;;;5072881;28;20125;-88
2022/11/25 08:09:43;;;;;;;10.03;2.90;;;7.10;99.90;;;;;;5071290;28;20039;-81
2022/11/25 08:12:09;;;;;;;7.47;3.00;;;7.10;99.90;;;;;;5074532;28;20461;-87
2022/11/25 08:14:35;;;;;;;10.25;3.63;;;7.10;99.90;;;;;;5074119;28;20020;-89
2022/11/25 08:17:03;;;;;;;13.00;3.80;;;7.20;99.90;;;;;;5074001;28;20033;-84
2022/11/25 08:19:31;;;;;;;8.90;2.72;;;7.20;99.90;;;;;;5071404;28;20027;-83
2022/11/25 08:21:56;;;;;;;11.60;2.92;;;7.30;99.90;;;;;;5074610;28;20336;-84
2022/11/25 08:24:22;;;;;;;7.00;3.63;;;7.30;99.90;;;;;;5065938;28;20032;-79
2022/11/25 08:26:48;;;;;;;9.93;2.50;;;7.30;99.90;;;;;;5040893;28;20029;-88
2022/11/25 08:29:15;;;;;;;8.93;2.50;;;7.30;99.90;;;;;;5069771;28;20025;-86
2022/11/25 08:31:41;;;;;;;7.00;2.63;;;7.40;99.90;;;;;;5074540;28;20029;-89
2022/11/25 08:34:08;;;;;;;8.18;2.78;;;7.40;99.90;;;;;;5071674;28;20040;-85
2022/11/25 08:36:35;;;;;;;10.77;2.63;;;7.50;99.90;;;;;;5073463;28;20024;-85
2022/11/25 08:39:04;;;;;;;13.65;2.67;;;7.50;99.90;;;;;;5069716;28;20031;-85
2022/11/25 08:41:33;;;;;;;11.45;2.83;;;7.50;99.90;;;;;;5064178;28;20226;-87
2022/11/25 08:44:01;;;;;;;8.05;2.78;;;7.50;99.90;;;;;;5067948;28;20069;-89
2022/11/25 08:46:32;;;;;;;9.75;2.65;;;7.60;99.90;;;;;;5068318;28;20305;-89
2022/11/25 08:48:58;;;;;;;14.93;2.92;;;7.60;99.90;;;;;;5051587;28;20438;-91
2022/11/25 08:51:27;;;;;;;13.75;2.60;;;7.60;99.90;;;;;;5074019;28;20036;-90
2022/11/25 08:53:53;;;;;;;13.23;3.05;;;7.60;99.90;;;;;;5073055;28;20050;-88
2022/11/25 08:56:20;;;;;;;11.45;2.78;;;7.60;99.90;;;;;;5072562;28;20020;-86
2022/11/25 08:58:48;;;;;;;7.68;2.53;;;7.70;99.90;;;;;;5070140;28;20020;-90
2022/11/25 09:01:14;;;;;;;7.90;2.20;;;7.70;99.90;;;;;;5072330;28;20031;-90
2022/11/25 09:03:44;;;;;;;7.23;2.43;;;7.70;99.90;;;;;;5062472;28;20067;-91
2022/11/25 09:06:11;;;;;;;10.77;2.70;;;7.70;99.90;;;;;;5074050;28;20280;-92
2022/11/25 09:08:38;;;;;;;5.25;2.80;;;7.80;99.90;;;;;;5074156;28;20056;-91
2022/11/25 09:11:04;;;;;;;8.63;2.83;;;7.80;99.90;;;;;;5074411;28;20071;-88
2022/11/25 09:13:30;;;;;;;8.10;2.40;;;7.80;99.90;;;;;;5075335;28;20048;-91
2022/11/25 09:15:56;;;;;;;10.50;3.22;;;7.80;99.90;;;;;;5072165;28;20692;-91
2022/11/25 09:18:25;;;;;;;8.25;2.53;;;7.80;99.90;;;;;;5073552;28;20031;-90
2022/11/25 09:20:51;;;;;;;9.75;3.03;;;7.90;99.90;;;;;;5073412;28;20119;-88
2022/11/25 09:23:18;;;;;;;;;;;7.90;99.90;;;;;;5075202;28;20108;-87
2022/11/25 09:25:53;;;;;;;10.57;2.53;;;8.00;99.90;;;;;;5074451;28;19909;-91
2022/11/25 09:28:19;;;;;;;3.42;2.20;;;8.00;99.90;;;;;;5074130;28;20025;-92
2022/11/25 09:30:45;;;;;;;9.68;2.65;;;8.10;99.90;;;;;;5072232;28;20034;-84
2022/11/25 09:33:11;;;;;;;12.47;2.60;;;8.10;99.90;;;;;;5073281;28;20332;-82
2022/11/25 09:35:37;;;;;;;8.80;2.37;;;8.10;99.90;;;;;;5073137;28;20031;-92
2022/11/25 09:38:02;;;;;;;8.87;2.50;;;8.20;99.90;;;;;;5065077;28;20032;-83
2022/11/25 09:40:47;;;;;;;9.63;2.05;;;8.20;99.90;;;;;;5073685;28;20517;-91
2022/11/25 09:46:52;;;;;;;12.45;2.47;;;8.30;99.90;;;;;;5016212;28;20072;-91
2022/11/25 09:49:45;;;;;;;6.90;2.15;;;8.40;99.90;;;;;;5011675;28;20029;-91
2022/11/25 09:52:29;;;;;;;6.00;1.95;;;8.40;99.90;;;;;;5003811;28;20050;-90
2022/11/25 09:55:29;;;;;;;4.43;1.85;;;8.40;99.90;;;;;;5029435;28;20108;-81
2022/11/25 09:58:19;;;;;;;12.50;2.10;;;8.50;99.90;;;;;;5004876;28;20131;-91
2022/11/25 10:00:46;;;;;;;10.38;2.40;;;8.60;99.90;;;;;;4996762;28;20448;-91
2022/11/25 10:03:28;;;;;;;18.73;3.50;;;8.60;99.90;;;;;;5002730;28;20453;-82
2022/11/25 10:06:12;;;;;;;11.70;2.33;;;8.70;99.90;;;;;;5001061;28;20111;-91
2022/11/25 10:08:41;;;;;;;9.73;2.47;;;8.70;99.90;;;;;;4983944;28;20022;-89
2022/11/25 10:11:16;;;;;;;9.70;1.95;;;8.80;99.90;;;;;;4996318;28;20114;-88
2022/11/25 10:13:54;;;;;;;8.05;2.22;;;8.90;99.90;;;;;;4999312;28;20050;-84
2022/11/25 10:16:37;;;;;;;8.32;2.33;;;8.90;99.90;;;;;;4990214;28;20035;-88
2022/11/25 10:19:12;;;;;;;14.15;2.70;;;9.00;99.90;;;;;;4986403;28;20171;-79
2022/11/25 10:21:38;;;;;;;8.57;1.80;;;9.10;99.90;;;;;;4983581;28;20077;-86
2022/11/25 10:24:05;;;;;;;7.63;1.87;;;9.20;99.90;;;;;;5024359;28;20379;-88
2022/11/25 10:26:36;;;;;;;;;;;9.30;99.90;;;;;;5009880;28;20034;-87
2022/11/25 10:29:13;;;;;;;8.15;2.28;;;9.40;99.90;;;;;;5022849;28;19909;-90
2022/11/25 10:31:42;;;;;;;21.83;2.35;;;9.50;99.90;;;;;;5028289;28;20029;-90
2022/11/25 10:34:22;;;;;;;8.48;1.75;;;9.60;99.90;;;;;;5074364;28;20036;-80
2022/11/25 10:36:50;;;;;;;4.63;1.63;;;9.70;99.90;;;;;;5073602;28;20025;-78
2022/11/25 10:39:25;;;;;;;6.28;1.85;;;9.80;99.90;;;;;;5073221;28;20025;-89
2022/11/25 10:41:58;;;;;;;5.55;1.60;;;9.90;99.90;;;;;;5072538;28;20033;-83
2022/11/25 10:44:31;;;;;;;22.17;2.50;;;10.10;99.90;;;;;;5071756;28;20032;-79
2022/11/25 10:47:19;;;;;;;10.25;1.98;;;10.20;99.90;;;;;;5065210;28;20032;-84
2022/11/25 10:49:44;;;;;;;11.65;1.95;;;10.20;99.90;;;;;;5073990;28;20032;-78
2022/11/25 10:52:13;;;;;;;14.60;1.93;;;10.20;99.90;;;;;;5072638;28;20017;-82
2022/11/25 10:54:39;;;;;;;18.23;1.70;;;10.20;99.90;;;;;;5073922;28;20052;-87
2022/11/25 10:57:17;;;;;;;20.73;1.80;;;10.30;99.90;;;;;;5074425;28;20082;-78
2022/11/25 10:59:57;;;;;;;5.35;2.00;;;10.30;99.90;;;;;;5066077;28;20270;-77
2022/11/25 11:02:28;;;;;;;9.40;1.90;;;10.30;99.90;;;;;;5072991;28;20123;-89
2022/11/25 11:04:56;;;;;;;7.28;1.58;;;10.40;99.90;;;;;;5067386;28;20033;-87
2022/11/25 11:07:23;;;;;;;21.30;2.33;;;10.40;99.90;;;;;;5077088;28;20024;-86
2022/11/25 11:09:48;;;;;;;;;;;10.50;99.90;;;;;;5088590;28;20320;-80
2022/11/25 11:12:18;;;;;;;8.90;1.42;;;10.70;99.90;;;;;;5073887;28;19915;-87
2022/11/25 11:14:44;;;;;;;20.48;1.92;;;10.80;99.90;;;;;;5074854;28;20423;-83
2022/11/25 11:17:32;;;;;;;14.30;2.80;;;10.80;99.90;;;;;;5076610;28;20027;-78
2022/11/25 11:20:29;;;;;;;9.38;1.73;;;10.80;99.90;;;;;;5073933;28;20032;-83
2022/11/25 11:23:00;;;;;;;10.63;1.60;;;10.70;99.90;;;;;;5071941;28;20127;-78
2022/11/25 11:25:37;;;;;;;16.63;1.88;;;10.60;99.90;;;;;;5066679;28;20050;-86
2022/11/25 11:28:23;;;;;;;16.00;1.92;;;10.50;99.90;;;;;;5073132;28;20297;-78
2022/11/25 11:31:01;;;;;;;27.27;2.85;;;10.40;99.90;;;;;;5063820;28;20032;-83
2022/11/25 11:33:29;;;;;;;7.82;1.45;;;10.40;99.90;;;;;;5071565;28;20024;-82
2022/11/25 11:36:14;;;;;;;14.02;2.35;;;10.50;99.90;;;;;;5069509;28;20035;-84
2022/11/25 11:39:10;;;;;;;56.75;3.80;;;10.40;99.90;;;;;;5050855;28;20039;-83
2022/11/25 11:41:44;;;;;;;21.60;2.70;;;10.40;99.90;;;;;;5052998;28;20024;-76
2022/11/25 11:44:15;;;;;;;14.32;2.30;;;10.60;99.90;;;;;;5049022;28;20322;-81
2022/11/25 11:47:00;;;;;;;11.07;2.13;;;10.70;99.90;;;;;;5070939;28;20029;-84
2022/11/25 11:49:47;;;;;;;8.60;2.03;;;10.90;99.90;;;;;;5075222;28;20028;-83
2022/11/25 11:52:49;;;;;;;6.82;1.70;;;11.00;99.90;;;;;;5057877;28;20032;-82
2022/11/25 11:55:39;;;;;;;15.10;2.00;;;11.00;99.90;;;;;;5052640;28;20045;-84
2022/11/25 11:58:08;;;;;;;6.78;1.63;;;10.90;99.90;;;;;;5054543;28;20041;-86
2022/11/25 12:01:07;;;;;;;20.10;2.15;;;10.90;99.90;;;;;;5055443;28;20024;-82
2022/11/25 12:03:43;;;;;;;28.60;3.17;;;11.00;99.90;;;;;;5033886;28;20095;-81
2022/11/25 12:06:10;;;;;;;16.52;2.72;;;10.90;99.90;;;;;;5053353;28;20412;-88
2022/11/25 12:09:16;;;;;;;13.73;2.33;;;10.90;99.90;;;;;;5052656;28;20309;-85
2022/11/25 12:11:48;;;;;;;10.10;1.98;;;11.10;99.90;;;;;;5050929;28;20043;-78
2022/11/25 12:14:30;;;;;;;11.55;2.75;;;11.10;99.90;;;;;;5049481;28;20028;-77
2022/11/25 12:17:00;;;;;;;17.40;2.70;;;11.00;99.90;;;;;;5048813;28;20090;-80
2022/11/25 12:19:51;;;;;;;18.05;1.90;;;11.00;99.90;;;;;;5050215;28;20439;-76
2022/11/25 12:22:43;;;;;;;16.02;1.60;;;11.00;99.90;;;;;;5049677;28;20238;-83
2022/11/25 12:25:15;;;;;;;13.43;2.10;;;11.00;99.90;;;;;;5042085;28;20033;-83
2022/11/25 12:27:51;;;;;;;16.02;2.17;;;11.10;99.90;;;;;;5052091;28;20028;-78
2022/11/25 12:30:19;;;;;;;11.52;2.08;;;11.10;99.90;;;;;;5052194;28;20017;-88
2022/11/25 12:33:30;;;;;;;11.25;2.08;;;11.10;99.90;;;;;;5053473;28;20147;-83
2022/11/25 12:36:10;;;;;;;11.35;1.95;;;11.20;99.90;;;;;;5047611;28;20474;-84
2022/11/25 12:38:58;;;;;;;18.50;1.90;;;11.30;99.90;;;;;;5054086;28;20028;-77
2022/11/25 12:41:44;;;;;;;14.73;2.70;;;11.30;99.90;;;;;;5051965;28;20021;-82
2022/11/25 12:44:25;;;;;;;12.70;2.53;;;11.30;99.90;;;;;;5045770;28;20025;-85
2022/11/25 12:46:53;;;;;;;13.82;2.25;;;11.30;99.90;;;;;;5049895;28;20047;-86
2022/11/25 12:49:33;;;;;;;16.98;2.20;;;11.20;99.90;;;;;;5046107;28;20022;-82
2022/11/25 12:51:59;;;;;;;12.55;2.08;;;11.20;99.90;;;;;;5063318;28;20103;-83
2022/11/25 12:54:49;;;;;;;20.97;2.33;;;11.20;99.90;;;;;;5044498;28;20069;-79
2022/11/25 12:57:30;;;;;;;14.77;3.17;;;11.10;99.90;;;;;;5042516;28;20025;-84
2022/11/25 12:59:59;;;;;;;13.88;2.30;;;11.10;99.90;;;;;;5046564;28;20469;-84
2022/11/25 13:02:43;;;;;;;7.80;2.10;;;11.10;99.90;;;;;;5044376;28;20037;-77
2022/11/25 13:05:23;;;;;;;16.08;2.78;;;11.00;99.90;;;;;;5051673;28;20025;-84
2022/11/25 13:07:58;;;;;;;23.10;2.28;;;10.90;99.90;;;;;;5048162;28;20037;-85
2022/11/25 13:10:55;;;;;;;14.55;1.73;;;10.90;99.90;;;;;;5045137;28;20019;-79
2022/11/25 13:13:30;;;;;;;8.55;1.73;;;10.90;99.90;;;;;;5014626;28;20038;-78
2022/11/25 13:15:58;;;;;;;14.77;1.88;;;11.00;99.90;;;;;;5052193;28;20420;-86
2022/11/25 13:18:27;;;;;;;20.10;2.67;;;10.90;99.90;;;;;;5053443;28;20044;-77